Kurtistown, Hawaii
Current Conditions -  °F | °C
As of 8:01 AM on Sunday 25 Jan 2015 (Local Time) from PHTO Reporting Station
Light Rain Light Rain  
Wind Chill: 73°   Ceiling: 3900
Heat Index: 73°   Visibility: 6mi
Dew Point: 69°   Wind: 8mph
Humidity: 87%   Direction: 30°NNE
Pressure: 30.02"   Gusts: NA
Location:  19.59°N, 155.05°W
Report Text: PHTO 251801Z 03007KT 6SM -RA BR FEW011 BKN039 OVC047 23/21 A3002 RMK AO2 VIS W 3 P0000 T02280206 $
Loading
Personal Weather Stations






























Interactive Weather Map New forecast layout! Learn more

10-Day Weather Forecast

Advertisements
Track Severe Weather on mobile